createdAt,value
2019-04-04T00:00:39.508Z,7.55
2019-04-04T00:03:08.437Z,7.87
2019-04-04T00:05:37.346Z,7.67
2019-04-04T00:08:06.306Z,7.60
2019-04-04T00:10:35.280Z,7.57
2019-04-04T00:13:04.120Z,7.58
2019-04-04T00:15:32.992Z,7.49
2019-04-04T00:18:01.915Z,7.39
2019-04-04T00:20:31.851Z,7.31
2019-04-04T00:22:59.703Z,7.20
2019-04-04T00:25:28.622Z,7.05
2019-04-04T00:27:57.503Z,7.02
2019-04-04T00:30:26.405Z,7.43
2019-04-04T00:32:55.302Z,7.21
2019-04-04T00:35:24.210Z,7.12
2019-04-04T00:37:53.091Z,7.47
2019-04-04T00:40:22.014Z,7.15
2019-04-04T00:42:50.899Z,7.07
2019-04-04T00:45:19.815Z,6.97
2019-04-04T00:47:48.720Z,6.93
2019-04-04T00:50:17.616Z,6.87
2019-04-04T00:52:46.475Z,6.84
2019-04-04T00:55:15.896Z,6.79
2019-04-04T00:57:44.311Z,6.81
2019-04-04T01:00:13.214Z,6.79
2019-04-04T01:02:42.118Z,7.14
2019-04-04T01:05:11.028Z,6.82
2019-04-04T01:07:39.968Z,6.87
2019-04-04T01:10:08.930Z,6.79
2019-04-04T01:12:37.808Z,7.16
2019-04-04T01:15:06.772Z,6.85
2019-04-04T01:17:35.782Z,6.80
2019-04-04T01:20:07.048Z,6.71
2019-04-04T01:22:35.957Z,6.52
2019-04-04T01:25:05.389Z,6.38
2019-04-04T01:27:35.036Z,6.25
2019-04-04T01:30:03.184Z,6.71
2019-04-04T01:32:32.088Z,6.43
2019-04-04T01:35:00.994Z,6.42
2019-04-04T01:37:29.900Z,6.48
2019-04-04T01:39:59.944Z,6.49
2019-04-04T01:42:27.688Z,6.45
2019-04-04T01:44:56.698Z,6.60
2019-04-04T01:47:25.497Z,6.58
2019-04-04T01:49:54.420Z,6.92
2019-04-04T01:52:23.296Z,7.07
2019-04-04T01:54:52.205Z,6.76
2019-04-04T01:57:21.092Z,6.66
2019-04-04T01:59:49.991Z,6.57
2019-04-04T02:02:18.877Z,6.51
2019-04-04T02:04:47.781Z,6.51
2019-04-04T02:07:16.678Z,6.38
2019-04-04T02:09:45.598Z,6.32
2019-04-04T02:12:14.518Z,6.27
2019-04-04T02:14:43.673Z,6.22
2019-04-04T02:17:12.309Z,6.15
2019-04-04T02:19:41.192Z,6.04
2019-04-04T02:22:10.103Z,6.01
2019-04-04T02:24:39.004Z,6.08
2019-04-04T02:27:07.904Z,6.15
2019-04-04T02:29:36.800Z,6.50
2019-04-04T02:32:08.887Z,6.21
2019-04-04T02:34:38.473Z,6.13
2019-04-04T02:37:06.694Z,6.20
2019-04-04T02:39:36.061Z,6.17
2019-04-04T02:42:04.489Z,6.17
2019-04-04T02:44:33.405Z,6.07
2019-04-04T02:47:02.301Z,6.54
2019-04-04T02:49:31.181Z,6.32
2019-04-04T02:52:00.099Z,6.20
2019-04-04T02:54:28.968Z,6.20
2019-04-04T02:56:57.859Z,6.14
2019-04-04T02:59:26.777Z,6.15
2019-04-04T03:01:55.660Z,6.11
2019-04-04T03:04:24.543Z,6.03
2019-04-04T03:06:57.335Z,5.89
2019-04-04T03:09:22.339Z,5.86
2019-04-04T03:11:53.547Z,5.82
2019-04-04T03:14:20.122Z,5.81
2019-04-04T03:16:49.021Z,5.80
2019-04-04T03:19:17.928Z,5.75
2019-04-04T03:21:46.819Z,5.78
2019-04-04T03:24:15.708Z,5.76
2019-04-04T03:26:44.592Z,5.68
2019-04-04T03:29:13.479Z,5.70
2019-04-04T03:31:42.416Z,5.73
2019-04-04T03:34:12.781Z,5.77
2019-04-04T03:36:40.177Z,5.86
2019-04-04T03:39:09.128Z,5.81
2019-04-04T03:41:38.048Z,5.75
2019-04-04T03:44:06.974Z,5.74
2019-04-04T03:46:38.762Z,5.75
2019-04-04T03:49:04.747Z,5.72
2019-04-04T03:51:37.091Z,5.62
2019-04-04T03:54:03.747Z,5.56
2019-04-04T03:56:38.723Z,5.54
2019-04-04T03:59:01.561Z,5.53
2019-04-04T04:01:30.457Z,6.02
2019-04-04T04:03:59.389Z,5.83
2019-04-04T04:06:28.300Z,6.23
2019-04-04T04:08:57.194Z,6.15
2019-04-04T04:11:26.103Z,6.05
2019-04-04T04:13:55.041Z,5.93
2019-04-04T04:16:24.007Z,5.84
2019-04-04T04:18:54.451Z,5.82
2019-04-04T04:21:21.849Z,5.83
2019-04-04T04:23:50.754Z,5.74
2019-04-04T04:26:19.660Z,5.73
2019-04-04T04:28:52.135Z,5.75
2019-04-04T04:31:17.465Z,5.74
2019-04-04T04:33:46.393Z,5.75
2019-04-04T04:36:16.349Z,5.84
2019-04-04T04:38:44.183Z,5.89
2019-04-04T04:41:13.078Z,5.88
2019-04-04T04:43:41.959Z,5.83
2019-04-04T04:46:10.869Z,5.79
2019-04-04T04:48:39.754Z,5.74
2019-04-04T04:51:11.551Z,5.75
2019-04-04T04:53:37.546Z,5.83
2019-04-04T04:56:06.540Z,5.82
2019-04-04T04:58:35.431Z,5.80
2019-04-04T05:01:04.311Z,5.72
2019-04-04T05:03:33.248Z,5.65
2019-04-04T05:06:02.642Z,5.62
2019-04-04T05:08:31.049Z,5.62
2019-04-04T05:10:59.981Z,5.59
2019-04-04T05:13:28.976Z,5.58
2019-04-04T05:15:57.788Z,5.61
2019-04-04T05:18:26.683Z,5.60
2019-04-04T05:20:57.351Z,5.58
2019-04-04T05:23:24.454Z,5.59
2019-04-04T05:25:54.321Z,5.64
2019-04-04T05:28:22.268Z,5.65
2019-04-04T05:30:51.284Z,6.01
2019-04-04T05:33:22.726Z,5.79
2019-04-04T05:35:48.999Z,5.74
2019-04-04T05:38:17.903Z,5.82
2019-04-04T05:40:46.807Z,6.15
2019-04-04T05:43:15.774Z,5.93
2019-04-04T05:45:45.234Z,5.86
2019-04-04T05:48:13.524Z,5.81
2019-04-04T05:50:43.650Z,5.79
2019-04-04T05:53:11.336Z,5.75
2019-04-04T05:55:41.848Z,5.72
2019-04-04T05:58:09.265Z,6.14
2019-04-04T06:00:38.151Z,5.82
2019-04-04T06:03:07.086Z,5.75
2019-04-04T06:05:35.983Z,5.84
2019-04-04T06:08:07.843Z,5.90
2019-04-04T06:10:33.836Z,5.81
2019-04-04T06:13:02.808Z,5.85
2019-04-04T06:15:32.235Z,5.86
2019-04-04T06:18:00.601Z,5.92
2019-04-04T06:20:29.534Z,5.88
2019-04-04T06:22:58.387Z,5.93
2019-04-04T06:25:27.300Z,5.95
2019-04-04T06:27:56.208Z,5.95
2019-04-04T06:30:25.117Z,6.00
2019-04-04T06:32:54.046Z,6.02
2019-04-04T06:35:22.929Z,6.02
2019-04-04T06:37:52.102Z,6.01
2019-04-04T06:40:20.784Z,6.06
2019-04-04T06:42:49.722Z,6.44
2019-04-04T06:45:18.617Z,6.63
2019-04-04T06:47:47.564Z,6.44
2019-04-04T06:50:16.469Z,6.41
2019-04-04T06:52:45.360Z,6.45
2019-04-04T06:55:14.269Z,6.46
2019-04-04T06:57:43.172Z,6.53
2019-04-04T07:00:15.535Z,6.58
2019-04-04T07:02:41.100Z,6.68
2019-04-04T07:05:10.691Z,6.78
2019-04-04T07:07:39.088Z,6.78
2019-04-04T07:10:08.130Z,6.85
2019-04-04T07:12:38.039Z,7.07
2019-04-04T07:15:06.520Z,7.21
2019-04-04T07:17:35.376Z,7.33
2019-04-04T07:20:05.005Z,7.27
2019-04-04T07:22:33.931Z,7.34
2019-04-04T07:25:05.572Z,7.44
2019-04-04T07:27:31.834Z,7.52
2019-04-04T07:30:00.655Z,7.57
2019-04-04T07:32:29.586Z,7.67
2019-04-04T07:34:58.499Z,7.76
2019-04-04T07:37:27.443Z,7.78
2019-04-04T07:39:56.422Z,7.84
2019-04-04T07:42:25.327Z,7.94
2019-04-04T07:44:54.644Z,8.11
2019-04-04T07:47:23.160Z,8.27
2019-04-04T07:49:53.227Z,8.36
2019-04-04T07:52:20.958Z,8.38
2019-04-04T07:54:49.848Z,8.40
2019-04-04T07:57:19.774Z,8.45
2019-04-04T07:59:47.648Z,8.79
2019-04-04T08:02:16.598Z,9.05
2019-04-04T08:04:45.530Z,9.38
2019-04-04T08:07:14.397Z,9.30
2019-04-04T08:09:43.315Z,9.58
2019-04-04T08:12:12.287Z,9.34
2019-04-04T08:14:41.193Z,9.29
2019-04-04T08:17:10.098Z,9.16
2019-04-04T08:19:38.988Z,9.57
2019-04-04T08:22:08.349Z,9.32
2019-04-04T08:24:37.051Z,9.17
2019-04-04T08:27:06.077Z,9.09
2019-04-04T08:29:34.922Z,8.99
2019-04-04T08:32:03.901Z,8.85
2019-04-04T08:34:32.805Z,8.63
2019-04-04T08:37:01.704Z,8.60
2019-04-04T08:39:30.624Z,8.58
2019-04-04T08:41:59.536Z,8.68
2019-04-04T08:44:28.473Z,8.81
2019-04-04T08:46:57.351Z,8.85
2019-04-04T08:49:26.236Z,9.12
2019-04-04T08:51:55.159Z,9.23
2019-04-04T08:54:24.052Z,9.28
2019-04-04T08:56:53.069Z,9.28
2019-04-04T08:59:21.861Z,9.42
2019-04-04T09:01:50.795Z,9.47
2019-04-04T09:04:19.702Z,9.56
2019-04-04T09:06:48.579Z,9.67
2019-04-04T09:09:17.494Z,9.75
2019-04-04T09:11:46.401Z,9.85
2019-04-04T09:14:15.328Z,10.11
2019-04-04T09:16:44.244Z,10.41
2019-04-04T09:19:13.163Z,10.64
2019-04-04T09:21:42.083Z,10.87
2019-04-04T09:24:11.071Z,11.16
2019-04-04T09:26:39.951Z,11.40
2019-04-04T09:29:09.047Z,11.73
2019-04-04T09:31:38.046Z,12.05
2019-04-04T09:34:07.028Z,12.19
2019-04-04T09:36:35.932Z,12.41
2019-04-04T09:39:06.909Z,12.48
2019-04-04T09:41:35.890Z,12.37
2019-04-04T09:44:06.150Z,12.43
2019-04-04T09:46:33.754Z,12.31
2019-04-04T09:49:02.684Z,12.05
2019-04-04T09:51:31.601Z,12.01
2019-04-04T09:54:00.515Z,12.02
2019-04-04T09:56:29.420Z,11.97
2019-04-04T09:58:58.311Z,11.92
2019-04-04T10:01:27.250Z,12.02
2019-04-04T10:03:56.187Z,12.02
2019-04-04T10:06:25.079Z,12.08
2019-04-04T10:08:53.954Z,12.24
2019-04-04T10:11:22.853Z,12.17
2019-04-04T10:13:51.762Z,12.15
2019-04-04T10:16:20.675Z,12.43
2019-04-04T10:18:49.642Z,11.92
2019-04-04T10:21:18.482Z,12.14
2019-04-04T10:23:47.390Z,12.19
2019-04-04T10:26:16.291Z,12.16
2019-04-04T10:28:45.222Z,12.29
2019-04-04T10:31:14.093Z,12.11
2019-04-04T10:33:43.017Z,12.47
2019-04-04T10:36:11.868Z,12.19
2019-04-04T10:38:40.769Z,12.45
2019-04-04T10:41:09.775Z,12.51
2019-04-04T10:43:38.706Z,12.87
2019-04-04T10:46:07.810Z,12.59
2019-04-04T10:48:36.777Z,12.79
2019-04-04T10:51:05.736Z,12.79
2019-04-04T10:53:34.630Z,12.88
2019-04-04T10:56:03.537Z,12.96
2019-04-04T10:58:32.419Z,12.85
2019-04-04T11:01:01.303Z,12.89
2019-04-04T11:03:30.244Z,12.86
2019-04-04T11:05:59.110Z,13.19
2019-04-04T11:08:28.007Z,13.10
2019-04-04T11:10:58.937Z,13.68
2019-04-04T11:13:33.302Z,14.00
2019-04-04T11:15:54.795Z,14.26
2019-04-04T11:18:23.668Z,14.70
2019-04-04T11:20:53.084Z,14.43
2019-04-04T11:23:22.006Z,14.54
2019-04-04T11:25:55.504Z,14.88
2019-04-04T11:28:27.015Z,15.64
2019-04-04T11:30:54.163Z,15.78
2019-04-04T11:33:23.391Z,15.98
2019-04-04T11:35:55.233Z,15.87
2019-04-04T11:38:26.679Z,15.60
2019-04-04T11:40:53.604Z,15.37
2019-04-04T11:43:24.974Z,15.23
2019-04-04T11:45:59.433Z,14.67
2019-04-04T11:48:26.597Z,14.58
2019-04-04T11:50:56.070Z,14.23
2019-04-04T11:53:25.158Z,14.03
2019-04-04T11:55:54.626Z,13.93
2019-04-04T11:58:23.780Z,13.71
2019-04-04T12:00:57.319Z,13.70
2019-04-04T12:03:26.654Z,13.44
2019-04-04T12:05:55.988Z,13.27
2019-04-04T12:08:29.739Z,12.97
2019-04-04T12:11:01.238Z,12.65
2019-04-04T12:13:30.589Z,12.61
2019-04-04T12:15:59.778Z,12.71
2019-04-04T12:18:31.435Z,12.62
2019-04-04T12:21:01.012Z,12.46
2019-04-04T12:23:32.822Z,12.28
2019-04-04T12:26:01.906Z,11.90
2019-04-04T12:28:36.633Z,11.72
2019-04-04T12:31:06.173Z,11.64
2019-04-04T12:33:37.358Z,11.41
2019-04-04T12:36:07.739Z,11.31
2019-04-04T12:38:38.571Z,11.19
2019-04-04T12:41:07.675Z,11.13
2019-04-04T12:43:37.034Z,11.27
2019-04-04T12:46:09.146Z,11.44
2019-04-04T12:48:38.188Z,11.51
2019-04-04T12:51:08.341Z,11.29
2019-04-04T12:53:37.475Z,11.36
2019-04-04T12:56:06.641Z,11.41
2019-04-04T12:58:38.262Z,11.37
2019-04-04T13:01:07.486Z,11.35
2019-04-04T13:03:39.365Z,11.28
2019-04-04T13:06:08.789Z,11.36
2019-04-04T13:08:38.762Z,11.32
2019-04-04T13:11:08.211Z,11.28
2019-04-04T13:13:38.315Z,11.24
2019-04-04T13:16:07.082Z,11.17
2019-04-04T13:18:36.582Z,11.28
2019-04-04T13:21:05.940Z,11.28
2019-04-04T13:23:40.149Z,11.25
2019-04-04T13:26:11.438Z,11.26
2019-04-04T13:28:41.963Z,11.30
2019-04-04T13:31:18.692Z,11.35
2019-04-04T13:33:50.644Z,11.34
2019-04-04T13:36:24.865Z,11.33
2019-04-04T13:38:55.118Z,11.36
2019-04-04T13:41:22.552Z,11.40
2019-04-04T13:43:54.320Z,11.48
2019-04-04T13:46:25.917Z,11.55
2019-04-04T13:48:54.755Z,11.58
2019-04-04T13:51:26.921Z,11.44
2019-04-04T13:53:59.069Z,11.48
2019-04-04T13:56:29.344Z,11.51
2019-04-04T13:59:01.155Z,11.48
2019-04-04T14:01:29.686Z,11.35
2019-04-04T14:04:00.508Z,11.24
2019-04-04T14:06:28.008Z,11.14
2019-04-04T14:08:59.753Z,11.09
2019-04-04T14:11:28.912Z,11.10
2019-04-04T14:13:58.872Z,11.32
2019-04-04T14:16:34.211Z,11.43
2019-04-04T14:19:03.584Z,11.60
2019-04-04T14:21:32.668Z,11.57
2019-04-04T14:24:12.347Z,11.69
2019-04-04T14:26:34.216Z,11.75
2019-04-04T14:29:06.890Z,11.80
2019-04-04T14:31:39.513Z,11.66
2019-04-04T14:34:11.411Z,11.72
2019-04-04T14:36:38.349Z,11.60
2019-04-04T14:39:07.812Z,11.64
2019-04-04T14:41:39.786Z,11.70
2019-04-04T14:44:09.140Z,11.61
2019-04-04T14:46:40.748Z,11.60
2019-04-04T14:49:09.735Z,11.51
2019-04-04T14:51:38.630Z,11.62
2019-04-04T14:54:07.895Z,11.66
2019-04-04T14:56:36.757Z,11.64
2019-04-04T14:59:05.968Z,11.55
2019-04-04T15:01:35.247Z,11.50
2019-04-04T15:04:03.788Z,11.41
2019-04-04T15:06:32.713Z,11.37
2019-04-04T15:09:01.609Z,11.31
2019-04-04T15:11:30.535Z,11.14
2019-04-04T15:13:59.422Z,11.00
2019-04-04T15:16:28.337Z,11.06
2019-04-04T15:18:57.246Z,11.02
2019-04-04T15:21:26.175Z,10.96
2019-04-04T15:23:55.111Z,10.79
2019-04-04T15:26:24.078Z,10.80
2019-04-04T15:28:52.990Z,10.88
2019-04-04T15:31:21.918Z,10.82
2019-04-04T15:33:50.922Z,10.69
2019-04-04T15:36:19.727Z,10.71
2019-04-04T15:38:48.634Z,10.69
2019-04-04T15:41:17.575Z,10.62
2019-04-04T15:43:46.461Z,10.65
2019-04-04T15:46:15.369Z,10.67
2019-04-04T15:48:44.272Z,10.66
2019-04-04T15:51:13.154Z,10.68
2019-04-04T15:53:42.082Z,10.68
2019-04-04T15:56:10.962Z,10.64
2019-04-04T15:58:39.885Z,10.55
2019-04-04T16:01:08.835Z,10.63
2019-04-04T16:03:37.763Z,10.87
2019-04-04T16:06:06.762Z,10.90
2019-04-04T16:08:35.621Z,10.98
2019-04-04T16:11:04.594Z,11.04
2019-04-04T16:13:33.536Z,11.06
2019-04-04T16:16:02.406Z,11.04
2019-04-04T16:18:31.306Z,10.98
2019-04-04T16:21:00.279Z,10.94
2019-04-04T16:23:29.187Z,10.88
2019-04-04T16:25:58.087Z,10.93
2019-04-04T16:28:26.959Z,10.93
2019-04-04T16:30:55.887Z,10.89
2019-04-04T16:33:26.474Z,10.73
2019-04-04T16:35:53.695Z,10.74
2019-04-04T16:38:23.002Z,10.76
2019-04-04T16:40:51.463Z,10.69
2019-04-04T16:43:20.393Z,10.73
2019-04-04T16:45:49.276Z,10.53
2019-04-04T16:48:18.210Z,10.61
2019-04-04T16:50:47.080Z,10.54
2019-04-04T16:53:16.006Z,10.52
2019-04-04T16:55:44.917Z,10.56
2019-04-04T16:58:13.823Z,10.47
2019-04-04T17:00:42.748Z,10.74
2019-04-04T17:03:11.638Z,10.46
2019-04-04T17:05:40.535Z,10.47
2019-04-04T17:08:09.494Z,10.43
2019-04-04T17:10:38.399Z,10.36
2019-04-04T17:13:07.594Z,10.37
2019-04-04T17:15:36.504Z,10.37
2019-04-04T17:18:05.510Z,10.15
2019-04-04T17:20:34.369Z,10.17
2019-04-04T17:23:03.337Z,10.12
2019-04-04T17:25:32.234Z,10.13
2019-04-04T17:28:01.187Z,10.10
2019-04-04T17:30:30.143Z,10.05
2019-04-04T17:32:59.003Z,10.03
2019-04-04T17:35:28.179Z,10.02
2019-04-04T17:37:56.848Z,9.97
2019-04-04T17:40:25.737Z,9.91
2019-04-04T17:42:54.609Z,9.95
2019-04-04T17:45:23.512Z,9.91
2019-04-04T17:47:52.419Z,9.85
2019-04-04T17:50:21.843Z,9.76
2019-04-04T17:52:50.620Z,9.74
2019-04-04T17:55:19.729Z,9.62
2019-04-04T17:57:48.752Z,9.61
2019-04-04T18:00:17.215Z,9.54
2019-04-04T18:02:46.088Z,9.56
2019-04-04T18:05:14.960Z,9.84
2019-04-04T18:07:43.860Z,9.57
2019-04-04T18:10:12.778Z,9.51
2019-04-04T18:12:41.694Z,9.48
2019-04-04T18:15:10.611Z,9.52
2019-04-04T18:17:39.527Z,9.42
2019-04-04T18:20:08.418Z,9.40
2019-04-04T18:22:37.341Z,9.30
2019-04-04T18:25:06.456Z,9.29
2019-04-04T18:27:35.412Z,9.28
2019-04-04T18:30:05.371Z,9.21
2019-04-04T18:32:34.287Z,9.15
2019-04-04T18:35:03.615Z,9.07
2019-04-04T18:37:32.297Z,9.01
2019-04-04T18:40:01.014Z,8.96
2019-04-04T18:42:29.969Z,8.98
2019-04-04T18:44:58.856Z,9.19
2019-04-04T18:47:27.731Z,8.91
2019-04-04T18:49:56.631Z,8.76
2019-04-04T18:52:25.542Z,8.74
2019-04-04T18:54:54.451Z,8.71
2019-04-04T18:57:23.320Z,8.75
2019-04-04T18:59:52.233Z,8.75
2019-04-04T19:02:21.144Z,8.68
2019-04-04T19:04:50.044Z,8.98
2019-04-04T19:07:18.949Z,8.79
2019-04-04T19:09:47.830Z,8.66
2019-04-04T19:12:16.725Z,8.62
2019-04-04T19:14:45.612Z,8.56
2019-04-04T19:17:14.494Z,8.53
2019-04-04T19:19:43.394Z,8.51
2019-04-04T19:22:12.284Z,8.46
2019-04-04T19:24:41.177Z,8.45
2019-04-04T19:27:10.080Z,8.39
2019-04-04T19:29:38.957Z,8.40
2019-04-04T19:32:07.933Z,8.37
2019-04-04T19:34:36.806Z,8.31
2019-04-04T19:37:05.777Z,8.29
2019-04-04T19:39:34.682Z,8.27
2019-04-04T19:42:05.057Z,8.23
2019-04-04T19:44:32.568Z,8.21
2019-04-04T19:47:01.481Z,8.13
2019-04-04T19:49:30.477Z,8.12
2019-04-04T19:51:59.402Z,8.06
2019-04-04T19:54:28.318Z,8.08
2019-04-04T19:56:57.203Z,8.08
2019-04-04T19:59:26.102Z,8.04
2019-04-04T20:01:54.967Z,8.01
2019-04-04T20:04:23.865Z,7.99
2019-04-04T20:06:52.763Z,7.96
2019-04-04T20:09:21.665Z,7.90
2019-04-04T20:11:50.614Z,7.85
2019-04-04T20:14:19.502Z,7.75
2019-04-04T20:16:48.409Z,7.71
2019-04-04T20:19:17.269Z,7.68
2019-04-04T20:21:46.185Z,7.65
2019-04-04T20:24:15.058Z,7.69
2019-04-04T20:26:43.968Z,7.69
2019-04-04T20:29:12.833Z,7.67
2019-04-04T20:31:41.740Z,7.60
2019-04-04T20:34:10.634Z,7.55
2019-04-04T20:36:39.518Z,7.44
2019-04-04T20:39:08.458Z,7.44
2019-04-04T20:41:37.360Z,7.40
2019-04-04T20:44:06.310Z,7.44
2019-04-04T20:46:35.190Z,7.42
2019-04-04T20:49:04.119Z,7.33
2019-04-04T20:51:33.006Z,7.26
2019-04-04T20:54:01.930Z,7.18
2019-04-04T20:56:30.832Z,7.07
2019-04-04T20:58:59.747Z,7.01
2019-04-04T21:01:28.633Z,7.09
2019-04-04T21:03:57.638Z,7.06
2019-04-04T21:06:26.449Z,7.11
2019-04-04T21:08:55.361Z,7.17
2019-04-04T21:11:24.252Z,7.13
2019-04-04T21:13:56.436Z,7.03
2019-04-04T21:16:22.036Z,6.99
2019-04-04T21:18:50.953Z,6.92
2019-04-04T21:21:19.850Z,6.82
2019-04-04T21:23:48.775Z,6.72
2019-04-04T21:26:17.663Z,6.63
2019-04-04T21:28:46.565Z,6.70
2019-04-04T21:31:15.474Z,6.77
2019-04-04T21:33:44.382Z,6.78
2019-04-04T21:36:13.254Z,6.71
2019-04-04T21:38:42.159Z,6.58
2019-04-04T21:41:11.063Z,6.53
2019-04-04T21:43:39.963Z,6.54
2019-04-04T21:46:08.964Z,6.63
2019-04-04T21:48:37.793Z,6.65
2019-04-04T21:51:06.797Z,6.56
2019-04-04T21:53:35.650Z,6.54
2019-04-04T21:56:04.537Z,6.44
2019-04-04T21:58:33.443Z,6.40
2019-04-04T22:01:02.343Z,6.41
2019-04-04T22:03:31.242Z,6.33
2019-04-04T22:06:00.221Z,6.29
2019-04-04T22:08:29.127Z,6.30
2019-04-04T22:10:58.114Z,6.28
2019-04-04T22:13:26.947Z,6.26
2019-04-04T22:15:55.881Z,6.23
2019-04-04T22:18:24.787Z,6.18
2019-04-04T22:20:53.709Z,6.18
2019-04-04T22:23:22.618Z,6.27
2019-04-04T22:25:51.541Z,6.24
2019-04-04T22:28:20.450Z,6.28
2019-04-04T22:30:49.409Z,6.24
2019-04-04T22:33:18.397Z,6.26
2019-04-04T22:35:47.353Z,6.28
2019-04-04T22:38:16.262Z,6.62
2019-04-04T22:40:45.213Z,6.34
2019-04-04T22:43:14.133Z,6.27
2019-04-04T22:45:43.063Z,6.23
2019-04-04T22:48:11.991Z,6.24
2019-04-04T22:50:40.897Z,6.69
2019-04-04T22:53:09.827Z,6.52
2019-04-04T22:55:38.731Z,6.51
2019-04-04T22:58:07.719Z,6.58
2019-04-04T23:00:36.637Z,6.63
2019-04-04T23:03:06.234Z,6.59
2019-04-04T23:05:35.221Z,6.57
2019-04-04T23:08:04.181Z,6.52
2019-04-04T23:10:33.076Z,6.49
2019-04-04T23:13:02.030Z,6.46
2019-04-04T23:15:30.945Z,6.43
2019-04-04T23:17:59.855Z,6.43
2019-04-04T23:20:28.792Z,6.42
2019-04-04T23:22:57.722Z,6.39
2019-04-04T23:25:26.627Z,6.43
2019-04-04T23:27:55.553Z,6.44
2019-04-04T23:30:24.482Z,6.42
2019-04-04T23:32:53.394Z,6.39
2019-04-04T23:35:22.334Z,6.33
2019-04-04T23:37:51.258Z,6.28
2019-04-04T23:40:20.190Z,6.25
2019-04-04T23:42:49.090Z,6.32
2019-04-04T23:45:18.012Z,6.36
2019-04-04T23:47:46.915Z,6.39
2019-04-04T23:50:15.865Z,6.41
2019-04-04T23:52:44.855Z,6.46
2019-04-04T23:55:13.771Z,6.43
2019-04-04T23:57:42.740Z,6.41
